Time;durP1;ratioP1;P1;durP2;ratioP2;P2;SDS_P1;SDS_P2;PMS_P1;PMS_P2;Temp;Humidity;BMP_temperature;BMP_pressure;BME280_temperature;BME280_humidity;BME280_pressure;Samples;Min_cycle;Max_cycle;Signal;HPM_P1;HPM_P2
2024/02/23 00:02:18;;;;;;;1.13;0.10;;;4.70;99.90;;;;;;6303678;22;20019;-84
2024/02/23 00:04:44;;;;;;;2.17;0.30;;;4.70;99.90;;;;;;6278729;22;20007;-83
2024/02/23 00:07:10;;;;;;;2.10;0.10;;;4.70;99.90;;;;;;6330063;22;20408;-84
2024/02/23 00:09:37;;;;;;;1.17;0.10;;;4.70;99.90;;;;;;6303258;22;20465;-82
2024/02/23 00:12:03;;;;;;;1.23;0.10;;;4.70;99.90;;;;;;6303465;22;20336;-83
2024/02/23 00:14:30;;;;;;;2.78;0.20;;;4.70;99.90;;;;;;6277309;22;20000;-84
2024/02/23 00:16:57;;;;;;;1.88;0.20;;;4.80;99.90;;;;;;6277512;22;20416;-82
2024/02/23 00:19:24;;;;;;;1.52;0.13;;;4.80;99.90;;;;;;6304497;22;20014;-83
2024/02/23 00:21:50;;;;;;;1.33;0.10;;;4.90;99.90;;;;;;6303017;22;20072;-84
2024/02/23 00:24:17;;;;;;;0.90;0.10;;;4.80;99.90;;;;;;6302933;22;20046;-83
2024/02/23 00:26:43;;;;;;;0.82;0.10;;;4.80;99.90;;;;;;6303079;22;20389;-83
2024/02/23 00:29:09;;;;;;;1.25;0.10;;;4.80;99.90;;;;;;6277575;22;20014;-83
2024/02/23 00:31:37;;;;;;;2.40;0.20;;;4.80;99.90;;;;;;6302964;22;20007;-83
2024/02/23 00:34:03;;;;;;;1.75;0.10;;;4.80;99.90;;;;;;6302711;22;20003;-83
2024/02/23 00:36:29;;;;;;;2.10;0.10;;;4.80;99.90;;;;;;6328788;22;20019;-82
2024/02/23 00:38:54;;;;;;;2.30;0.10;;;4.80;99.90;;;;;;6276875;22;20003;-84
2024/02/23 00:41:20;;;;;;;1.95;0.15;;;4.80;99.90;;;;;;6304140;22;20090;-82
2024/02/23 00:43:47;;;;;;;0.60;0.10;;;4.80;99.90;;;;;;6302626;22;20085;-82
2024/02/23 00:46:14;;;;;;;1.10;0.10;;;4.80;99.90;;;;;;6302025;22;20317;-82
2024/02/23 00:48:40;;;;;;;0.85;0.20;;;4.80;99.90;;;;;;6304467;22;20387;-83
2024/02/23 00:51:05;;;;;;;1.80;0.20;;;4.80;99.90;;;;;;6276488;22;20031;-82
2024/02/23 00:53:32;;;;;;;1.02;0.20;;;4.80;99.90;;;;;;6302494;22;20007;-83
2024/02/23 00:55:58;;;;;;;2.35;0.40;;;4.80;99.90;;;;;;6302547;22;20033;-84
2024/02/23 00:58:23;;;;;;;1.30;0.68;;;4.80;99.90;;;;;;6277358;22;20107;-85
2024/02/23 01:00:49;;;;;;;4.55;0.40;;;4.90;99.90;;;;;;6303825;22;20008;-84
2024/02/23 01:03:14;;;;;;;1.10;0.40;;;4.80;99.90;;;;;;6304283;22;20110;-84
2024/02/23 01:05:42;;;;;;;2.83;0.40;;;4.80;99.90;;;;;;6302496;22;20463;-84
2024/02/23 01:08:08;;;;;;;0.98;0.30;;;4.90;99.90;;;;;;6276850;22;20454;-83
2024/02/23 01:10:34;;;;;;;2.53;0.30;;;4.90;99.90;;;;;;6328865;22;20009;-84
2024/02/23 01:12:59;;;;;;;1.85;0.40;;;5.00;99.90;;;;;;6277023;22;20050;-84
2024/02/23 01:15:25;;;;;;;3.00;0.40;;;5.00;99.90;;;;;;6302664;22;20017;-85
2024/02/23 01:17:51;;;;;;;2.28;0.40;;;4.90;99.90;;;;;;6302522;22;20008;-83
2024/02/23 01:20:17;;;;;;;1.60;0.60;;;5.00;99.90;;;;;;6276557;22;20007;-84
2024/02/23 01:22:43;;;;;;;2.92;0.60;;;5.00;99.90;;;;;;6276864;22;20395;-83
2024/02/23 01:25:08;;;;;;;4.60;0.70;;;5.00;99.90;;;;;;6276994;22;20003;-84
2024/02/23 01:27:34;;;;;;;4.13;0.95;;;5.00;99.90;;;;;;6302014;22;20078;-83
2024/02/23 01:30:00;;;;;;;3.20;0.82;;;5.00;99.90;;;;;;6276622;22;20014;-83
2024/02/23 01:32:26;;;;;;;3.88;0.70;;;5.00;99.90;;;;;;6303783;22;20003;-84
2024/02/23 01:34:52;;;;;;;5.22;0.90;;;5.00;99.90;;;;;;6302338;22;20003;-85
2024/02/23 01:37:17;;;;;;;1.80;0.70;;;5.00;99.90;;;;;;6276430;22;20071;-84
2024/02/23 01:39:43;;;;;;;2.72;0.65;;;4.90;99.90;;;;;;6302726;22;20447;-82
2024/02/23 01:42:09;;;;;;;4.70;0.77;;;5.00;99.90;;;;;;6276868;22;20022;-85
2024/02/23 01:44:35;;;;;;;3.60;0.80;;;4.90;99.90;;;;;;6276502;22;20056;-84
2024/02/23 01:47:00;;;;;;;3.17;0.70;;;4.90;99.90;;;;;;6277333;22;20007;-85
2024/02/23 01:49:31;;;;;;;2.03;0.60;;;5.00;99.90;;;;;;6302460;22;20007;-84
2024/02/23 01:52:06;;;;;;;4.85;0.60;;;4.90;99.90;;;;;;6277411;22;20011;-84
2024/02/23 01:54:34;;;;;;;4.50;0.60;;;4.90;99.90;;;;;;6328704;22;20008;-82
2024/02/23 01:57:00;;;;;;;2.38;0.40;;;4.80;99.90;;;;;;6302572;22;20086;-85
2024/02/23 01:59:26;;;;;;;3.17;0.40;;;4.90;99.90;;;;;;6301710;22;19999;-82
2024/02/23 02:01:52;;;;;;;5.53;0.50;;;4.80;99.90;;;;;;6276515;22;20329;-84
2024/02/23 02:04:18;;;;;;;2.72;0.30;;;4.80;99.90;;;;;;6302172;22;20064;-86
2024/02/23 02:06:46;;;;;;;1.20;0.20;;;4.80;99.90;;;;;;6302531;22;20335;-84
2024/02/23 02:09:12;;;;;;;3.97;0.30;;;4.80;99.90;;;;;;6276111;22;20086;-84
2024/02/23 02:11:50;;;;;;;1.65;0.20;;;4.80;99.90;;;;;;6302180;22;20058;-83
2024/02/23 02:14:17;;;;;;;3.38;0.17;;;4.80;99.90;;;;;;6301832;22;20440;-84
2024/02/23 02:16:43;;;;;;;2.63;0.15;;;4.70;99.90;;;;;;6276116;22;20015;-85
2024/02/23 02:19:13;;;;;;;1.95;0.13;;;4.70;99.90;;;;;;6301792;22;20011;-83
2024/02/23 02:21:41;;;;;;;2.67;0.10;;;4.70;99.90;;;;;;6276426;22;20011;-83
2024/02/23 02:24:07;;;;;;;1.25;0.13;;;4.70;99.90;;;;;;6276218;22;20082;-83
2024/02/23 02:26:32;;;;;;;2.67;0.20;;;4.70;99.90;;;;;;6301874;22;20034;-85
2024/02/23 02:28:59;;;;;;;3.92;0.20;;;4.80;99.90;;;;;;6276219;22;20006;-84
2024/02/23 02:31:37;;;;;;;4.70;0.30;;;4.80;99.90;;;;;;5059307;27;1288750;-86
2024/02/23 02:34:03;;;;;;;3.13;0.20;;;4.80;99.90;;;;;;5085836;28;20082;-84
2024/02/23 02:36:29;;;;;;;2.78;0.10;;;4.70;99.90;;;;;;5082560;28;20052;-91
2024/02/23 02:38:55;;;;;;;4.38;0.20;;;4.70;99.90;;;;;;5083661;28;20083;-86
2024/02/23 02:41:23;;;;;;;3.22;0.10;;;4.80;99.90;;;;;;5083617;28;20044;-84
2024/02/23 02:43:49;;;;;;;4.57;0.10;;;4.80;99.90;;;;;;5059922;28;20537;-85
2024/02/23 02:46:15;;;;;;;4.30;0.10;;;4.80;99.90;;;;;;5085442;28;20028;-84
2024/02/23 02:48:40;;;;;;;1.42;0.10;;;4.80;99.90;;;;;;5085101;28;20066;-85
2024/02/23 02:51:06;;;;;;;2.47;0.20;;;4.80;99.90;;;;;;5084805;28;20535;-87
2024/02/23 02:53:32;;;;;;;1.98;0.20;;;4.80;99.90;;;;;;5066504;28;20035;-86
2024/02/23 02:55:57;;;;;;;2.08;0.20;;;4.80;99.90;;;;;;5082234;28;20035;-86
2024/02/23 02:58:23;;;;;;;3.95;0.30;;;4.80;99.90;;;;;;5100394;28;20051;-85
2024/02/23 03:00:49;;;;;;;4.20;0.20;;;4.90;99.90;;;;;;5084032;28;20470;-83
2024/02/23 03:03:14;;;;;;;3.08;0.17;;;4.80;99.90;;;;;;5085309;28;20563;-85
2024/02/23 03:05:40;;;;;;;2.45;0.20;;;4.80;99.90;;;;;;5082106;28;20075;-85
2024/02/23 03:08:06;;;;;;;2.55;0.15;;;4.70;99.90;;;;;;5085484;28;20024;-84
2024/02/23 03:10:32;;;;;;;3.83;0.30;;;4.70;99.90;;;;;;5084695;28;20086;-85
2024/02/23 03:12:57;;;;;;;2.55;0.20;;;4.70;99.90;;;;;;5084016;28;20021;-85
2024/02/23 03:15:23;;;;;;;2.05;0.20;;;4.60;99.90;;;;;;5083252;28;20037;-85
2024/02/23 03:17:49;;;;;;;2.97;0.20;;;4.60;99.90;;;;;;5082829;28;20029;-85
2024/02/23 03:20:16;;;;;;;3.40;0.30;;;4.50;99.90;;;;;;5064615;28;20065;-84
2024/02/23 03:22:41;;;;;;;1.02;0.10;;;4.60;99.90;;;;;;5066866;28;20043;-84
2024/02/23 03:25:08;;;;;;;2.65;0.10;;;4.50;99.90;;;;;;5078996;28;20024;-85
2024/02/23 03:27:37;;;;;;;3.33;0.40;;;4.50;99.90;;;;;;5084450;28;20028;-85
2024/02/23 03:30:04;;;;;;;2.78;0.20;;;4.50;99.90;;;;;;5065651;28;20051;-85
2024/02/23 03:32:36;;;;;;;1.92;0.10;;;4.50;99.90;;;;;;5083237;28;20028;-84
2024/02/23 03:35:03;;;;;;;2.05;0.10;;;4.40;99.90;;;;;;5082635;28;20032;-85
2024/02/23 03:37:28;;;;;;;2.80;0.20;;;4.50;99.90;;;;;;5064731;28;20111;-83
2024/02/23 03:39:54;;;;;;;3.60;0.20;;;4.40;99.90;;;;;;5083267;28;20111;-85
2024/02/23 03:42:20;;;;;;;2.28;0.10;;;4.40;99.90;;;;;;5055261;28;20052;-85
2024/02/23 03:44:45;;;;;;;0.93;0.10;;;4.40;99.90;;;;;;5052762;28;20032;-84
2024/02/23 03:47:12;;;;;;;1.58;0.10;;;4.40;99.90;;;;;;5069174;28;20036;-85
2024/02/23 03:49:37;;;;;;;2.47;0.20;;;4.40;99.90;;;;;;5068874;28;20499;-85
2024/02/23 03:52:04;;;;;;;3.22;0.20;;;4.50;99.90;;;;;;5053150;28;20074;-84
2024/02/23 03:54:31;;;;;;;3.17;0.20;;;4.40;99.90;;;;;;5049984;28;20016;-85
2024/02/23 03:56:57;;;;;;;2.70;0.10;;;4.40;99.90;;;;;;5049218;28;20039;-84
2024/02/23 03:59:23;;;;;;;2.08;0.20;;;4.50;99.90;;;;;;5068963;28;20362;-82
2024/02/23 04:01:49;;;;;;;2.33;0.20;;;4.50;99.90;;;;;;5069363;28;20032;-86
2024/02/23 04:04:14;;;;;;;2.28;0.20;;;4.50;99.90;;;;;;5068396;28;20035;-86
2024/02/23 04:06:40;;;;;;;3.88;0.20;;;4.50;99.90;;;;;;5070776;28;20086;-85
2024/02/23 04:09:06;;;;;;;1.52;0.10;;;4.40;99.90;;;;;;5085441;28;20044;-85
2024/02/23 04:11:32;;;;;;;3.22;0.30;;;4.40;99.90;;;;;;5069335;28;20471;-85
2024/02/23 04:13:58;;;;;;;0.80;0.10;;;4.40;99.90;;;;;;5068722;28;20508;-85
2024/02/23 04:16:24;;;;;;;2.83;0.25;;;4.30;99.90;;;;;;5067834;28;20249;-85
2024/02/23 04:18:50;;;;;;;2.22;0.20;;;4.30;99.90;;;;;;5069613;28;20094;-84
2024/02/23 04:21:16;;;;;;;3.78;0.10;;;4.40;99.90;;;;;;5067378;28;20060;-84
2024/02/23 04:23:43;;;;;;;2.83;0.10;;;4.40;99.90;;;;;;5069955;28;20472;-85
2024/02/23 04:26:09;;;;;;;1.98;0.20;;;4.40;99.90;;;;;;5068765;28;20028;-86
2024/02/23 04:28:37;;;;;;;1.85;0.15;;;4.40;99.90;;;;;;5066359;28;20027;-86
2024/02/23 04:31:03;;;;;;;4.43;0.20;;;4.50;99.90;;;;;;5049238;28;20127;-85
2024/02/23 04:33:28;;;;;;;3.90;0.20;;;4.50;99.90;;;;;;5069749;28;20040;-86
2024/02/23 04:35:54;;;;;;;1.05;0.10;;;4.40;99.90;;;;;;5065869;28;20062;-84
2024/02/23 04:38:20;;;;;;;5.15;0.73;;;4.40;99.90;;;;;;5068530;28;20081;-85
2024/02/23 04:40:45;;;;;;;3.08;0.20;;;4.40;99.90;;;;;;5068511;28;20472;-85
2024/02/23 04:43:11;;;;;;;1.65;0.20;;;4.50;99.90;;;;;;5051844;28;20115;-84
2024/02/23 04:45:37;;;;;;;2.50;0.10;;;4.50;99.90;;;;;;5068573;28;20028;-84
2024/02/23 04:48:03;;;;;;;5.45;0.20;;;4.50;99.90;;;;;;5068702;28;20023;-85
2024/02/23 04:50:29;;;;;;;2.55;0.20;;;4.50;99.90;;;;;;5067300;28;20028;-84
2024/02/23 04:52:55;;;;;;;1.75;0.20;;;4.50;99.90;;;;;;5066992;28;20025;-84
2024/02/23 04:55:20;;;;;;;2.70;0.30;;;4.40;99.90;;;;;;5066503;28;20126;-83
2024/02/23 04:57:46;;;;;;;4.03;0.20;;;4.40;99.90;;;;;;5052174;28;20030;-84
2024/02/23 05:00:12;;;;;;;2.67;0.20;;;4.40;99.90;;;;;;5068940;28;20052;-83
2024/02/23 05:02:38;;;;;;;5.03;0.20;;;4.40;99.90;;;;;;5064342;28;20476;-84
2024/02/23 05:05:04;;;;;;;2.40;0.10;;;4.40;99.90;;;;;;5067436;28;20070;-88
2024/02/23 05:07:33;;;;;;;2.80;0.20;;;4.40;99.90;;;;;;5050783;28;20098;-84
2024/02/23 05:10:00;;;;;;;3.10;0.40;;;4.40;99.90;;;;;;5067749;28;20089;-84
2024/02/23 05:12:26;;;;;;;2.67;0.30;;;4.40;99.90;;;;;;5065485;28;20139;-84
2024/02/23 05:14:52;;;;;;;4.53;0.40;;;4.50;99.90;;;;;;5050545;28;20112;-84
2024/02/23 05:17:17;;;;;;;5.03;0.30;;;4.60;99.90;;;;;;5066871;28;20384;-85
2024/02/23 05:19:43;;;;;;;4.95;0.40;;;4.60;99.90;;;;;;5051192;28;20295;-84
2024/02/23 05:22:09;;;;;;;2.20;0.30;;;4.70;99.90;;;;;;5069398;28;20028;-84
2024/02/23 05:24:35;;;;;;;2.65;0.30;;;4.70;99.90;;;;;;5066854;28;20036;-86
2024/02/23 05:27:03;;;;;;;6.10;0.30;;;4.60;99.90;;;;;;5066875;28;20130;-85
2024/02/23 05:29:29;;;;;;;3.28;0.43;;;4.60;99.90;;;;;;5066379;28;20562;-84
2024/02/23 05:31:55;;;;;;;6.30;0.50;;;4.70;99.90;;;;;;5067341;28;20033;-85
2024/02/23 05:34:21;;;;;;;3.58;0.38;;;4.70;99.90;;;;;;5053152;28;20024;-86
2024/02/23 05:36:47;;;;;;;2.35;0.40;;;4.70;99.90;;;;;;5067110;28;20037;-86
2024/02/23 05:39:15;;;;;;;2.65;0.40;;;4.70;99.90;;;;;;5050664;28;20128;-85
2024/02/23 05:41:44;;;;;;;1.98;0.40;;;4.70;99.90;;;;;;5049627;28;20021;-87
2024/02/23 05:44:13;;;;;;;3.17;0.50;;;4.80;99.90;;;;;;5048578;28;20534;-86
2024/02/23 05:46:38;;;;;;;2.40;0.40;;;4.80;99.90;;;;;;5065820;28;20579;-86
2024/02/23 05:49:04;;;;;;;3.88;0.25;;;4.90;99.90;;;;;;5067310;28;20100;-86
2024/02/23 05:51:30;;;;;;;2.25;0.20;;;4.80;99.90;;;;;;5064071;28;20575;-87
2024/02/23 05:53:57;;;;;;;2.35;0.30;;;4.90;99.90;;;;;;5047754;28;20033;-86
2024/02/23 05:56:26;;;;;;;3.38;0.30;;;4.90;99.90;;;;;;5063540;28;20385;-85
2024/02/23 05:58:52;;;;;;;1.95;0.35;;;4.90;99.90;;;;;;5064790;28;20740;-85
2024/02/23 06:01:18;;;;;;;2.92;0.30;;;4.90;99.90;;;;;;5066113;28;20063;-85
2024/02/23 06:03:44;;;;;;;3.58;0.63;;;5.00;99.90;;;;;;5064348;28;20067;-84
2024/02/23 06:06:10;;;;;;;4.07;0.20;;;5.00;99.90;;;;;;5063895;28;20024;-87
2024/02/23 06:08:36;;;;;;;2.67;0.22;;;5.00;99.90;;;;;;5063542;28;20044;-86
2024/02/23 06:11:03;;;;;;;1.52;0.20;;;5.00;99.90;;;;;;5047364;28;20028;-87
2024/02/23 06:13:30;;;;;;;3.38;0.20;;;5.00;99.90;;;;;;5063535;28;20025;-87
2024/02/23 06:15:56;;;;;;;4.93;0.30;;;5.00;99.90;;;;;;5063970;28;20033;-86
2024/02/23 06:18:21;;;;;;;2.28;0.30;;;5.00;99.90;;;;;;5062684;28;20091;-85
2024/02/23 06:20:49;;;;;;;0.85;0.20;;;5.00;99.90;;;;;;5064221;28;20029;-86
2024/02/23 06:23:16;;;;;;;1.83;0.20;;;5.00;99.90;;;;;;5048727;28;20032;-87
2024/02/23 06:25:41;;;;;;;3.08;0.10;;;5.10;99.90;;;;;;5076353;28;20033;-87
2024/02/23 06:28:07;;;;;;;2.75;0.20;;;5.10;99.90;;;;;;5064368;28;20033;-88
2024/02/23 06:30:33;;;;;;;4.50;0.20;;;5.10;99.90;;;;;;5047121;28;20052;-87
2024/02/23 06:32:58;;;;;;;6.47;0.20;;;5.20;99.90;;;;;;5065254;28;20075;-87
2024/02/23 06:35:24;;;;;;;1.20;0.10;;;5.20;99.90;;;;;;5046021;28;20036;-87
2024/02/23 06:37:49;;;;;;;3.40;0.20;;;5.10;99.90;;;;;;5064113;28;20292;-86
2024/02/23 06:40:15;;;;;;;3.55;0.22;;;5.10;99.90;;;;;;5046788;28;20119;-86
2024/02/23 06:42:41;;;;;;;5.60;0.70;;;5.10;99.90;;;;;;5061718;28;20063;-86
2024/02/23 06:45:07;;;;;;;1.98;0.20;;;5.10;99.90;;;;;;5064411;28;20017;-87
2024/02/23 06:47:33;;;;;;;3.58;0.25;;;5.00;99.90;;;;;;5063542;28;20070;-86
2024/02/23 06:50:00;;;;;;;2.88;0.28;;;5.00;99.90;;;;;;5063745;28;20032;-88
2024/02/23 06:52:26;;;;;;;1.60;0.20;;;5.10;99.90;;;;;;5062971;28;20454;-87
2024/02/23 06:54:52;;;;;;;5.65;0.30;;;5.10;99.90;;;;;;5046180;28;20032;-87
2024/02/23 06:57:17;;;;;;;4.00;0.30;;;5.20;99.90;;;;;;5047651;28;20077;-88
2024/02/23 06:59:43;;;;;;;2.28;0.20;;;5.20;99.90;;;;;;5063036;28;20029;-88
2024/02/23 07:02:09;;;;;;;1.13;0.20;;;5.30;99.90;;;;;;5047413;28;20047;-87
2024/02/23 07:04:35;;;;;;;1.27;0.20;;;5.30;99.90;;;;;;5063715;28;20079;-86
2024/02/23 07:07:07;;;;;;;4.03;0.77;;;5.30;99.90;;;;;;5047267;28;20059;-88
2024/02/23 07:09:33;;;;;;;3.60;0.20;;;5.40;99.90;;;;;;5045968;28;20032;-88
2024/02/23 07:11:58;;;;;;;3.50;0.20;;;5.40;99.90;;;;;;5046759;28;20048;-87
2024/02/23 07:14:24;;;;;;;2.53;0.20;;;5.40;99.90;;;;;;5063810;28;20028;-87
2024/02/23 07:16:51;;;;;;;4.85;0.15;;;5.40;99.90;;;;;;5047585;28;20062;-87
2024/02/23 07:19:17;;;;;;;2.88;0.30;;;5.40;99.90;;;;;;5049344;28;20565;-87
2024/02/23 07:21:42;;;;;;;1.77;0.17;;;5.50;99.90;;;;;;5067085;28;20029;-89
2024/02/23 07:24:08;;;;;;;2.47;0.25;;;5.50;99.90;;;;;;5067185;28;20066;-89
2024/02/23 07:26:34;;;;;;;4.45;0.28;;;5.50;99.90;;;;;;5066160;28;20154;-88
2024/02/23 07:29:00;;;;;;;2.70;0.20;;;5.60;99.90;;;;;;5065804;28;20073;-88
2024/02/23 07:31:25;;;;;;;5.07;0.30;;;5.60;99.90;;;;;;5066338;28;20095;-88
2024/02/23 07:33:51;;;;;;;3.05;0.20;;;5.60;99.90;;;;;;5050256;28;20472;-87
2024/02/23 07:36:17;;;;;;;3.33;0.13;;;5.60;99.90;;;;;;5066539;28;20037;-87
2024/02/23 07:38:44;;;;;;;4.07;0.20;;;5.70;99.90;;;;;;5064887;28;20028;-87
2024/02/23 07:41:10;;;;;;;2.17;0.20;;;5.70;99.90;;;;;;5066468;28;20024;-87
2024/02/23 07:43:36;;;;;;;4.68;0.20;;;5.70;99.90;;;;;;5068600;28;20321;-88
2024/02/23 07:46:04;;;;;;;2.97;0.20;;;5.70;99.90;;;;;;5066759;28;20032;-87
2024/02/23 07:48:30;;;;;;;4.18;0.30;;;5.70;99.90;;;;;;5066708;28;20040;-88
2024/02/23 07:50:56;;;;;;;3.22;0.20;;;5.70;99.90;;;;;;5066897;28;20404;-87
2024/02/23 07:53:21;;;;;;;5.40;0.38;;;5.80;99.90;;;;;;5060037;28;20020;-87
2024/02/23 07:55:47;;;;;;;4.30;0.45;;;5.80;99.90;;;;;;5065720;28;20056;-86
2024/02/23 07:58:12;;;;;;;2.90;0.70;;;5.90;99.90;;;;;;5048942;28;20090;-86
2024/02/23 08:00:38;;;;;;;1.80;0.20;;;5.90;99.90;;;;;;5049916;28;20286;-87
2024/02/23 08:03:04;;;;;;;3.58;0.20;;;5.90;99.90;;;;;;5066227;28;20024;-88
2024/02/23 08:05:30;;;;;;;3.97;0.22;;;5.90;99.90;;;;;;5067018;28;20029;-89
2024/02/23 08:07:56;;;;;;;2.40;0.20;;;6.00;99.90;;;;;;5066973;28;20077;-88
2024/02/23 08:10:22;;;;;;;3.97;0.20;;;6.00;99.90;;;;;;5065235;28;20032;-86
2024/02/23 08:12:48;;;;;;;2.97;0.28;;;6.00;99.90;;;;;;5066097;28;20020;-86
2024/02/23 08:15:13;;;;;;;3.75;0.30;;;6.10;99.90;;;;;;5050717;28;20480;-88
2024/02/23 08:17:39;;;;;;;3.53;0.30;;;6.10;99.90;;;;;;5070193;28;20027;-86
2024/02/23 08:20:05;;;;;;;6.85;0.30;;;6.10;99.90;;;;;;5052336;28;20388;-86
2024/02/23 08:22:31;;;;;;;3.63;0.20;;;6.20;99.90;;;;;;5068878;28;20044;-86
2024/02/23 08:24:56;;;;;;;3.40;0.20;;;6.20;99.90;;;;;;5068981;28;20040;-83
2024/02/23 08:27:22;;;;;;;3.55;0.20;;;6.30;99.90;;;;;;5053497;28;20031;-85
2024/02/23 08:29:48;;;;;;;3.60;0.20;;;6.40;99.90;;;;;;5052029;28;20052;-83
2024/02/23 08:32:14;;;;;;;3.05;0.20;;;6.40;99.90;;;;;;5066146;28;20368;-85
2024/02/23 08:34:39;;;;;;;3.70;0.20;;;6.30;99.90;;;;;;5065090;28;20115;-83
2024/02/23 08:37:05;;;;;;;2.50;0.20;;;6.30;99.90;;;;;;5067369;28;20040;-84
2024/02/23 08:39:31;;;;;;;3.33;0.40;;;6.40;99.90;;;;;;5067235;28;20024;-86
2024/02/23 08:41:56;;;;;;;2.25;0.35;;;6.30;99.90;;;;;;5065200;28;20082;-85
2024/02/23 08:44:22;;;;;;;3.03;0.20;;;6.30;99.90;;;;;;5068925;28;20013;-84
2024/02/23 08:46:50;;;;;;;4.25;0.43;;;6.30;99.90;;;;;;5064036;28;20382;-83
2024/02/23 08:49:16;;;;;;;3.53;0.20;;;6.30;99.90;;;;;;5066559;28;20028;-82
2024/02/23 08:51:42;;;;;;;3.80;0.38;;;6.30;99.90;;;;;;5050580;28;20411;-82
2024/02/23 08:54:08;;;;;;;5.35;0.47;;;6.30;99.90;;;;;;5049748;28;20035;-86
2024/02/23 08:56:38;;;;;;;3.80;0.50;;;6.40;99.90;;;;;;4997341;28;20104;-86
2024/02/23 08:59:04;;;;;;;4.85;0.20;;;6.50;99.90;;;;;;5022020;28;20045;-84
2024/02/23 09:01:30;;;;;;;2.95;0.20;;;6.70;99.90;;;;;;5018888;28;20041;-82
2024/02/23 09:03:55;;;;;;;5.25;0.20;;;6.70;99.90;;;;;;5017649;28;20037;-86
2024/02/23 09:06:21;;;;;;;3.72;0.20;;;6.80;99.90;;;;;;5017613;28;20075;-83
2024/02/23 09:08:47;;;;;;;3.08;0.20;;;6.80;99.90;;;;;;5015168;28;20041;-82
2024/02/23 09:11:13;;;;;;;4.97;0.30;;;6.90;99.90;;;;;;5011282;28;20128;-82
2024/02/23 09:13:41;;;;;;;3.63;0.20;;;6.90;99.90;;;;;;5014778;28;20057;-82
2024/02/23 09:16:07;;;;;;;4.53;0.20;;;7.00;99.90;;;;;;4997191;28;20547;-81
2024/02/23 09:18:32;;;;;;;2.92;0.17;;;7.00;99.90;;;;;;5012169;28;20045;-83
2024/02/23 09:20:59;;;;;;;3.35;0.20;;;7.00;99.90;;;;;;5012632;28;20065;-80
2024/02/23 09:23:25;;;;;;;4.10;0.20;;;6.90;99.90;;;;;;5014476;28;20505;-81
2024/02/23 09:25:51;;;;;;;3.08;0.20;;;6.80;99.90;;;;;;5005472;28;20052;-82
2024/02/23 09:28:16;;;;;;;4.43;0.20;;;6.80;99.90;;;;;;5014238;28;20025;-81
2024/02/23 09:30:42;;;;;;;3.78;0.20;;;6.80;99.90;;;;;;5001729;28;20084;-81
2024/02/23 09:33:08;;;;;;;4.13;0.20;;;6.80;99.90;;;;;;5038031;28;20095;-82
2024/02/23 09:35:34;;;;;;;3.13;0.20;;;6.80;99.90;;;;;;5019895;28;20063;-82
2024/02/23 09:37:59;;;;;;;1.30;0.10;;;7.00;99.90;;;;;;5019625;28;20469;-83
2024/02/23 09:40:25;;;;;;;2.72;0.20;;;7.00;99.90;;;;;;5039900;28;20026;-83
2024/02/23 09:42:57;;;;;;;3.72;0.20;;;7.00;99.90;;;;;;5037003;28;20030;-83
2024/02/23 09:45:26;;;;;;;4.38;0.30;;;7.00;99.90;;;;;;5024849;28;20400;-81
2024/02/23 09:47:57;;;;;;;3.50;0.20;;;7.00;99.90;;;;;;5012261;28;20035;-82
2024/02/23 09:50:23;;;;;;;4.72;0.20;;;6.90;99.90;;;;;;5035841;28;20111;-82
2024/02/23 09:52:50;;;;;;;6.97;0.45;;;6.80;99.90;;;;;;5021578;28;20032;-81
2024/02/23 09:55:22;;;;;;;2.55;0.20;;;6.80;99.90;;;;;;5021937;28;20024;-83
2024/02/23 09:57:50;;;;;;;4.72;0.20;;;6.70;99.90;;;;;;5021113;28;20029;-82
2024/02/23 10:00:17;;;;;;;4.43;0.20;;;6.70;99.90;;;;;;5006011;28;20029;-82
2024/02/23 10:02:43;;;;;;;2.83;0.20;;;6.70;99.90;;;;;;5023749;28;20116;-81
2024/02/23 10:05:11;;;;;;;2.22;0.20;;;6.60;99.90;;;;;;5040493;28;20063;-84
2024/02/23 10:07:36;;;;;;;3.95;0.20;;;6.60;99.90;;;;;;5016925;28;20049;-82
2024/02/23 10:10:03;;;;;;;5.18;0.40;;;6.60;99.90;;;;;;5024317;28;20122;-81
2024/02/23 10:12:29;;;;;;;3.10;0.20;;;6.60;99.90;;;;;;5025533;28;20030;-82
2024/02/23 10:14:55;;;;;;;1.73;0.13;;;6.70;99.90;;;;;;5024196;28;20112;-82
2024/02/23 10:17:20;;;;;;;2.42;0.10;;;6.80;99.90;;;;;;5021020;28;20055;-83
2024/02/23 10:19:47;;;;;;;1.02;0.20;;;6.80;99.90;;;;;;5015753;28;20029;-83
2024/02/23 10:22:13;;;;;;;3.80;0.20;;;6.90;99.90;;;;;;5024283;28;20144;-85
2024/02/23 10:24:38;;;;;;;3.88;0.30;;;6.80;99.90;;;;;;5019482;28;20021;-81
2024/02/23 10:27:04;;;;;;;2.35;0.20;;;6.80;99.90;;;;;;5007097;28;20045;-80
2024/02/23 10:29:30;;;;;;;1.35;0.30;;;6.90;99.90;;;;;;5002459;28;20025;-81
2024/02/23 10:31:58;;;;;;;2.55;0.20;;;7.10;99.90;;;;;;5019750;28;20385;-82
2024/02/23 10:34:24;;;;;;;3.65;0.20;;;7.20;99.90;;;;;;5017875;28;20159;-83
2024/02/23 10:36:51;;;;;;;2.30;0.25;;;7.20;99.90;;;;;;5002403;28;20125;-81
2024/02/23 10:39:20;;;;;;;5.22;0.20;;;7.10;99.90;;;;;;5023251;28;20489;-85
2024/02/23 10:42:03;;;;;;;1.75;0.20;;;7.10;99.90;;;;;;5019081;28;20036;-81
2024/02/23 10:44:30;;;;;;;3.97;0.13;;;7.00;99.90;;;;;;5017606;28;20116;-83
2024/02/23 10:46:57;;;;;;;3.20;0.20;;;7.00;99.90;;;;;;5022172;28;20025;-82
2024/02/23 10:49:27;;;;;;;3.45;0.20;;;6.90;99.90;;;;;;5004130;28;20117;-80
2024/02/23 10:51:53;;;;;;;3.20;0.10;;;6.80;99.90;;;;;;5008192;28;20175;-81
2024/02/23 10:54:21;;;;;;;4.00;0.10;;;6.90;99.90;;;;;;5029873;28;20048;-82
2024/02/23 10:56:49;;;;;;;3.05;0.20;;;6.90;99.90;;;;;;5040546;28;20128;-82
2024/02/23 10:59:18;;;;;;;6.05;0.38;;;6.90;99.90;;;;;;5009744;28;20040;-82
2024/02/23 11:01:49;;;;;;;2.72;0.10;;;6.90;99.90;;;;;;5026513;28;20025;-82
2024/02/23 11:04:17;;;;;;;0.82;0.10;;;6.90;99.90;;;;;;5023828;28;20140;-82
2024/02/23 11:06:42;;;;;;;2.15;0.15;;;6.90;99.90;;;;;;5020408;28;20029;-83
2024/02/23 11:09:11;;;;;;;3.13;0.10;;;6.90;99.90;;;;;;5045637;28;20029;-83
2024/02/23 11:11:37;;;;;;;1.33;0.10;;;7.00;99.90;;;;;;5027972;28;20041;-83
2024/02/23 11:14:09;;;;;;;3.67;0.10;;;7.10;99.90;;;;;;5028910;28;20133;-83
2024/02/23 11:16:39;;;;;;;1.45;0.10;;;7.20;99.90;;;;;;5039541;28;20116;-84
2024/02/23 11:19:08;;;;;;;1.25;0.08;;;7.20;99.90;;;;;;5044964;28;20032;-84
2024/02/23 11:21:36;;;;;;;0.57;0.10;;;7.30;99.90;;;;;;5044787;28;20052;-83
2024/02/23 11:24:04;;;;;;;1.52;0.10;;;7.30;99.90;;;;;;5029475;28;20029;-83
2024/02/23 11:26:29;;;;;;;0.88;0.10;;;7.30;99.90;;;;;;5008713;28;20357;-83
2024/02/23 11:28:55;;;;;;;0.70;0.00;;;7.30;99.90;;;;;;5023469;28;20026;-82
2024/02/23 11:31:30;;;;;;;0.77;0.20;;;7.30;99.90;;;;;;5023874;28;20461;-83
2024/02/23 11:33:57;;;;;;;4.00;0.17;;;7.30;99.90;;;;;;5026505;28;20021;-83
2024/02/23 11:36:33;;;;;;;1.73;0.20;;;7.30;99.90;;;;;;5006409;28;20037;-85
2024/02/23 11:39:00;;;;;;;1.45;0.10;;;7.30;99.90;;;;;;5029581;28;20171;-84
2024/02/23 11:41:27;;;;;;;1.42;0.13;;;7.20;99.90;;;;;;5028899;28;20029;-85
2024/02/23 11:43:55;;;;;;;1.00;0.20;;;7.20;99.90;;;;;;5024328;28;20105;-83
2024/02/23 11:46:22;;;;;;;1.38;0.10;;;7.20;99.90;;;;;;5021264;28;20131;-84
2024/02/23 11:48:54;;;;;;;1.05;0.20;;;7.20;99.90;;;;;;5027608;28;20067;-84
2024/02/23 11:51:21;;;;;;;1.95;0.10;;;7.20;99.90;;;;;;5010924;28;20041;-84
2024/02/23 11:53:48;;;;;;;2.20;0.10;;;7.20;99.90;;;;;;5025815;28;20026;-84
2024/02/23 11:56:13;;;;;;;2.38;0.10;;;7.20;99.90;;;;;;5027344;28;20076;-86
2024/02/23 11:58:42;;;;;;;0.95;0.10;;;7.20;99.90;;;;;;5025474;28;20389;-85
2024/02/23 12:01:08;;;;;;;1.90;0.20;;;7.30;99.90;;;;;;5027245;28;20017;-85
2024/02/23 12:03:34;;;;;;;0.75;0.10;;;7.30;99.90;;;;;;5044832;28;20067;-85
2024/02/23 12:06:01;;;;;;;2.95;0.25;;;7.40;99.90;;;;;;5028097;28;20029;-84
2024/02/23 12:08:29;;;;;;;1.45;0.13;;;7.60;99.90;;;;;;4991599;28;20176;-83
2024/02/23 12:10:55;;;;;;;2.40;0.20;;;7.90;99.90;;;;;;4999548;28;20079;-83
2024/02/23 12:13:22;;;;;;;2.63;0.10;;;7.80;99.90;;;;;;5016488;28;20048;-83
2024/02/23 12:15:48;;;;;;;2.15;0.20;;;7.70;99.90;;;;;;5034748;28;20037;-86
2024/02/23 12:18:16;;;;;;;0.98;0.10;;;7.60;99.90;;;;;;4999829;28;20034;-87
2024/02/23 12:20:42;;;;;;;3.38;0.30;;;7.60;99.90;;;;;;5013627;28;20138;-84
2024/02/23 12:23:10;;;;;;;2.80;0.20;;;7.50;99.90;;;;;;5010257;28;20029;-83
2024/02/23 12:25:35;;;;;;;2.30;0.20;;;7.50;99.90;;;;;;5011026;28;20112;-84
2024/02/23 12:28:01;;;;;;;1.45;0.13;;;7.50;99.90;;;;;;4993730;28;20496;-83
2024/02/23 12:30:29;;;;;;;3.88;0.32;;;7.40;99.90;;;;;;4992927;28;20521;-83
2024/02/23 12:33:04;;;;;;;1.52;0.10;;;7.40;99.90;;;;;;5010456;28;20025;-84
2024/02/23 12:35:30;;;;;;;;;;;7.40;99.90;;;;;;5009547;28;20041;-84
2024/02/23 12:37:55;;;;;;;2.03;0.10;;;7.50;99.90;;;;;;5023526;28;20008;-85
2024/02/23 12:40:21;;;;;;;2.97;0.10;;;7.50;99.90;;;;;;5025965;28;20030;-84
2024/02/23 12:42:48;;;;;;;3.60;0.20;;;7.40;99.90;;;;;;5016874;28;20132;-85
2024/02/23 12:45:14;;;;;;;3.97;0.20;;;7.50;99.90;;;;;;5024055;28;20167;-85
2024/02/23 12:47:40;;;;;;;3.38;0.13;;;7.50;99.90;;;;;;5018327;28;20125;-86
2024/02/23 12:50:07;;;;;;;1.92;0.10;;;7.50;99.90;;;;;;5007132;28;20059;-85
2024/02/23 12:52:33;;;;;;;1.85;0.20;;;7.60;99.90;;;;;;5018505;28;20572;-85
2024/02/23 12:54:59;;;;;;;5.30;0.20;;;7.50;99.90;;;;;;5002367;28;20108;-83